createdAt,value
2019-03-22T00:01:10.145Z,6.90
2019-03-22T00:06:11.765Z,6.80
2019-03-22T00:11:13.408Z,6.80
2019-03-22T00:16:14.909Z,6.70
2019-03-22T00:21:16.357Z,6.70
2019-03-22T00:26:18.146Z,6.80
2019-03-22T00:31:19.679Z,6.70
2019-03-22T00:36:21.516Z,6.70
2019-03-22T00:41:23.479Z,6.70
2019-03-22T00:46:25.126Z,6.70
2019-03-22T00:51:26.799Z,6.70
2019-03-22T00:56:28.216Z,6.60
2019-03-22T01:01:29.897Z,6.60
2019-03-22T01:06:31.417Z,6.50
2019-03-22T01:11:33.099Z,6.40
2019-03-22T01:16:38.545Z,6.40
2019-03-22T01:21:39.941Z,6.30
2019-03-22T01:26:41.353Z,6.20
2019-03-22T01:31:42.988Z,6.10
2019-03-22T01:36:44.592Z,6.10
2019-03-22T01:41:48.254Z,6.00
2019-03-22T01:46:50.375Z,6.00
2019-03-22T01:51:52.022Z,6.00
2019-03-22T01:56:56.808Z,6.10
2019-03-22T02:01:58.472Z,6.10
2019-03-22T02:06:59.955Z,6.10
2019-03-22T02:12:01.294Z,6.10
2019-03-22T02:17:03.671Z,6.10
2019-03-22T02:22:05.285Z,6.20
2019-03-22T02:27:07.011Z,6.20
2019-03-22T02:32:08.662Z,6.30
2019-03-22T02:37:11.144Z,6.30
2019-03-22T02:42:12.803Z,6.30
2019-03-22T02:47:14.478Z,6.40
2019-03-22T02:52:15.911Z,6.50
2019-03-22T02:57:17.301Z,6.50
2019-03-22T03:02:18.841Z,6.50
2019-03-22T03:07:24.791Z,6.60
2019-03-22T03:12:28.100Z,6.70
2019-03-22T03:17:31.086Z,6.70
2019-03-22T03:22:32.619Z,6.80
2019-03-22T03:27:34.136Z,6.90
2019-03-22T03:32:35.631Z,7.00
2019-03-22T03:37:37.443Z,7.10
2019-03-22T03:42:39.049Z,7.10
2019-03-22T03:47:40.776Z,7.20
2019-03-22T03:52:42.409Z,7.20
2019-03-22T03:57:43.984Z,7.30
2019-03-22T04:02:45.461Z,7.30
2019-03-22T04:07:50.247Z,7.40
2019-03-22T04:12:51.730Z,7.40
2019-03-22T04:17:53.224Z,7.40
2019-03-22T04:22:55.090Z,7.50
2019-03-22T04:27:59.585Z,7.50
2019-03-22T04:33:01.004Z,7.60
2019-03-22T04:38:02.535Z,7.60
2019-03-22T04:43:06.651Z,7.60
2019-03-22T04:48:16.543Z,7.60
2019-03-22T04:53:23.857Z,7.60
2019-03-22T04:58:28.650Z,7.60
2019-03-22T05:03:33.534Z,7.60
2019-03-22T05:08:38.213Z,7.60
2019-03-22T05:13:43.546Z,7.60
2019-03-22T05:18:48.116Z,7.60
2019-03-22T05:23:53.666Z,7.50
2019-03-22T05:28:55.824Z,7.50
2019-03-22T05:33:57.280Z,7.50
2019-03-22T05:39:00.178Z,7.40
2019-03-22T05:44:01.844Z,7.40
2019-03-22T05:49:03.354Z,7.40
2019-03-22T05:54:06.843Z,7.30
2019-03-22T05:59:08.517Z,7.30
2019-03-22T06:04:10.314Z,7.30
2019-03-22T06:09:11.942Z,7.30
2019-03-22T06:14:13.256Z,7.30
2019-03-22T06:19:14.862Z,7.30
2019-03-22T06:24:16.641Z,7.30
2019-03-22T06:29:18.036Z,7.30
2019-03-22T06:34:20.499Z,7.40
2019-03-22T06:39:21.918Z,7.40
2019-03-22T06:44:23.880Z,7.40
2019-03-22T06:49:27.184Z,7.40
2019-03-22T06:54:31.938Z,7.50
2019-03-22T06:59:36.591Z,7.50
2019-03-22T07:04:40.384Z,7.50
2019-03-22T07:09:41.699Z,7.50
2019-03-22T07:14:44.445Z,7.40
2019-03-22T07:19:46.189Z,7.50
2019-03-22T07:24:50.296Z,7.50
2019-03-22T07:29:51.679Z,7.60
2019-03-22T07:34:53.057Z,7.60
2019-03-22T07:39:54.453Z,7.70
2019-03-22T07:44:56.041Z,7.70
2019-03-22T07:49:57.397Z,7.80
2019-03-22T07:54:58.890Z,7.90
2019-03-22T08:00:00.887Z,7.90
2019-03-22T08:05:04.485Z,8.00
2019-03-22T08:10:07.717Z,8.00
2019-03-22T08:15:11.155Z,8.10
2019-03-22T08:20:13.637Z,8.20
2019-03-22T08:25:15.496Z,8.20
2019-03-22T08:30:42.966Z,8.30
2019-03-22T08:35:39.408Z,8.40
2019-03-22T08:40:41.263Z,8.50
2019-03-22T08:46:01.458Z,8.60
2019-03-22T08:51:03.257Z,8.70
2019-03-22T08:56:05.013Z,8.80
2019-03-22T09:01:07.041Z,8.90
2019-03-22T09:06:08.493Z,9.00
2019-03-22T09:11:10.885Z,9.20
2019-03-22T09:16:12.419Z,9.30
2019-03-22T09:21:14.029Z,9.40
2019-03-22T09:26:15.429Z,9.60
2019-03-22T09:31:16.989Z,9.70
2019-03-22T09:36:18.510Z,9.80
2019-03-22T09:41:20.252Z,10.00
2019-03-22T09:46:22.122Z,10.20
2019-03-22T09:51:23.530Z,10.30
2019-03-22T09:56:24.904Z,10.50
2019-03-22T10:01:26.392Z,10.70
2019-03-22T10:06:27.826Z,10.90
2019-03-22T10:11:29.413Z,10.80
2019-03-22T10:16:31.177Z,10.80
2019-03-22T10:21:32.668Z,10.80
2019-03-22T10:26:34.305Z,10.80
2019-03-22T10:31:37.800Z,10.90
2019-03-22T10:36:40.655Z,10.90
2019-03-22T10:41:42.150Z,11.00
2019-03-22T10:46:44.959Z,11.00
2019-03-22T10:51:56.757Z,11.10
2019-03-22T10:56:52.125Z,11.20
2019-03-22T11:02:03.144Z,11.20
2019-03-22T11:06:58.955Z,11.30
2019-03-22T11:12:11.755Z,11.50
2019-03-22T11:17:05.809Z,11.70
2019-03-22T11:22:07.323Z,11.90
2019-03-22T11:27:09.021Z,12.10
2019-03-22T11:32:12.867Z,12.30
2019-03-22T11:37:14.169Z,12.40
2019-03-22T11:42:17.385Z,12.50
2019-03-22T11:47:21.356Z,12.70
2019-03-22T11:52:25.385Z,12.90
2019-03-22T11:57:27.883Z,13.00
2019-03-22T12:02:30.564Z,13.20
2019-03-22T12:07:32.147Z,13.30
2019-03-22T12:12:33.614Z,13.40
2019-03-22T12:17:35.023Z,13.60
2019-03-22T12:22:38.553Z,13.70
2019-03-22T12:27:40.397Z,13.80
2019-03-22T12:32:42.161Z,13.90
2019-03-22T12:37:44.555Z,14.10
2019-03-22T12:42:46.603Z,14.10
2019-03-22T12:47:51.618Z,14.20
2019-03-22T12:52:56.140Z,14.20
2019-03-22T12:57:59.509Z,14.20
2019-03-22T13:03:04.529Z,14.40
2019-03-22T13:08:06.746Z,14.50
2019-03-22T13:13:08.254Z,14.50
2019-03-22T13:18:09.648Z,14.50
2019-03-22T13:23:11.137Z,14.50
2019-03-22T13:28:12.499Z,14.60
2019-03-22T13:33:16.343Z,14.60
2019-03-22T13:38:23.854Z,14.70
2019-03-22T13:43:26.618Z,14.70
2019-03-22T13:48:28.076Z,14.80
2019-03-22T13:53:29.992Z,14.90
2019-03-22T13:58:33.429Z,15.00
2019-03-22T14:03:34.894Z,15.00
2019-03-22T14:08:36.239Z,15.00
2019-03-22T14:13:39.736Z,15.10
2019-03-22T14:18:43.100Z,15.10
2019-03-22T14:23:44.857Z,15.10
2019-03-22T14:28:46.230Z,15.20
2019-03-22T14:33:49.522Z,15.20
2019-03-22T14:38:51.257Z,15.30
2019-03-22T14:43:53.707Z,15.30
2019-03-22T14:48:55.428Z,15.50
2019-03-22T14:53:59.177Z,15.50
2019-03-22T14:59:00.756Z,15.60
2019-03-22T15:04:02.419Z,15.70
2019-03-22T15:09:06.171Z,15.70
2019-03-22T15:14:28.942Z,15.70
2019-03-22T15:19:52.077Z,15.70
2019-03-22T15:25:13.352Z,15.70
2019-03-22T15:30:35.705Z,15.60
2019-03-22T15:35:45.144Z,15.60
2019-03-22T15:40:46.751Z,15.60
2019-03-22T15:45:48.817Z,15.50
2019-03-22T15:50:50.419Z,15.50
2019-03-22T15:55:53.609Z,15.50
2019-03-22T16:00:55.095Z,15.50
2019-03-22T16:06:00.045Z,15.50
2019-03-22T16:11:03.172Z,15.50
2019-03-22T16:16:04.582Z,15.40
2019-03-22T16:21:08.316Z,15.30
2019-03-22T16:26:13.705Z,15.30
2019-03-22T16:31:16.234Z,15.20
2019-03-22T16:36:19.741Z,15.20
2019-03-22T16:41:21.622Z,15.10
2019-03-22T16:46:23.467Z,15.10
2019-03-22T16:51:25.660Z,15.00
2019-03-22T16:56:30.154Z,15.00
2019-03-22T17:01:31.734Z,15.00
2019-03-22T17:06:38.313Z,15.00
2019-03-22T17:11:42.997Z,14.90
2019-03-22T17:16:51.446Z,14.80
2019-03-22T17:21:52.991Z,14.70
2019-03-22T17:26:56.356Z,14.60
2019-03-22T17:31:57.887Z,14.40
2019-03-22T17:36:59.319Z,14.20
2019-03-22T17:42:02.195Z,14.00
2019-03-22T17:47:03.961Z,13.90
2019-03-22T17:52:07.363Z,13.90
2019-03-22T17:57:18.557Z,13.90
2019-03-22T18:02:16.433Z,13.90
2019-03-22T18:07:18.117Z,13.90
2019-03-22T18:12:21.581Z,13.80
2019-03-22T18:17:23.374Z,13.70
2019-03-22T18:22:24.931Z,13.60
2019-03-22T18:27:26.482Z,13.50
2019-03-22T18:32:30.002Z,13.40
2019-03-22T18:37:31.669Z,13.30
2019-03-22T18:42:33.281Z,13.10
2019-03-22T18:47:36.697Z,12.90
2019-03-22T18:52:38.254Z,12.70
2019-03-22T18:57:40.183Z,12.60
2019-03-22T19:02:44.005Z,12.50
2019-03-22T19:07:45.844Z,12.30
2019-03-22T19:12:47.442Z,12.20
2019-03-22T19:17:49.075Z,12.10
2019-03-22T19:22:50.595Z,11.90
2019-03-22T19:27:52.591Z,11.80
2019-03-22T19:32:54.194Z,11.70
2019-03-22T19:37:58.072Z,11.60
2019-03-22T19:42:59.473Z,11.40
2019-03-22T19:48:01.265Z,11.30
2019-03-22T19:53:03.061Z,11.20
2019-03-22T19:58:06.368Z,11.00
2019-03-22T20:03:08.586Z,10.90
2019-03-22T20:08:13.875Z,10.80
2019-03-22T20:13:15.998Z,10.70
2019-03-22T20:18:17.549Z,10.50
2019-03-22T20:23:19.240Z,10.40
2019-03-22T20:28:20.614Z,10.20
2019-03-22T20:33:22.512Z,10.00
2019-03-22T20:38:28.315Z,9.70
2019-03-22T20:43:31.969Z,9.50
2019-03-22T20:48:35.378Z,9.20
2019-03-22T20:53:38.688Z,9.10
2019-03-22T20:58:41.286Z,9.00
2019-03-22T21:03:42.881Z,9.00
2019-03-22T21:08:44.664Z,8.90
2019-03-22T21:13:46.120Z,8.90
2019-03-22T21:18:48.336Z,8.80
2019-03-22T21:23:49.951Z,8.80
2019-03-22T21:28:52.467Z,8.70
2019-03-22T21:33:54.566Z,8.70
2019-03-22T21:38:56.220Z,8.60
2019-03-22T21:43:57.980Z,8.60
2019-03-22T21:48:59.551Z,8.60
2019-03-22T21:54:02.480Z,8.50
2019-03-22T21:59:08.219Z,8.50
2019-03-22T22:04:09.836Z,8.40
2019-03-22T22:09:11.247Z,8.40
2019-03-22T22:14:14.533Z,8.40
2019-03-22T22:19:17.290Z,8.30
2019-03-22T22:24:18.850Z,8.30
2019-03-22T22:29:20.304Z,8.30
2019-03-22T22:34:24.971Z,8.30
2019-03-22T22:39:26.881Z,8.40
2019-03-22T22:44:28.691Z,8.40
2019-03-22T22:49:30.139Z,8.50
2019-03-22T22:54:33.477Z,8.50
2019-03-22T22:59:34.856Z,8.50
2019-03-22T23:04:38.416Z,8.60
2019-03-22T23:09:40.339Z,8.60
2019-03-22T23:14:41.649Z,8.60
2019-03-22T23:19:43.052Z,8.70
2019-03-22T23:24:47.512Z,8.70
2019-03-22T23:29:49.185Z,8.70
2019-03-22T23:34:59.027Z,8.80
2019-03-22T23:39:56.289Z,8.80
2019-03-22T23:44:57.702Z,8.80
2019-03-22T23:49:59.092Z,8.90
2019-03-22T23:55:00.575Z,8.90
